Flats, Nebraska
Current Conditions -  °F | °C
As of 3:09 AM on Saturday 22 Nov 2014 (Local Time) from KLBF Reporting Station
Moderate Fog Moderate Fog  
Wind Chill: 19°   Ceiling: 200
Heat Index: 19°   Visibility: 0.5mi
Dew Point: 18°   Wind: 3mph
Humidity: 96%   Direction: 290°WNW
Pressure: 29.86"   Gusts: NA
Location:  41.1714°N, 101.184°W
Report Text: KLBF 220909Z AUTO 29003KT 1/2SM FZFG VV002 M07/M08 A2986 RMK AO2 T10721078 FZRANO $
Loading
Personal Weather Stations






























Interactive Weather Map New forecast layout! Learn more

10-Day Weather Forecast

Advertisements
Track Severe Weather on mobile